TimeMST,TemperatureF,Dew PointF,Humidity,Sea Level PressureIn,VisibilityMPH,Wind Direction,Wind SpeedMPH,Gust SpeedMPH,PrecipitationIn,Events,Conditions,WindDirDegrees,DateUTC
12:15 AM,35.6,19.4,52,30.16,10.0,North,4.6,-,N/A,,Clear,360,2013-02-15 07:15:00
12:35 AM,33.8,17.6,52,30.17,10.0,Calm,Calm,-,N/A,,Clear,0,2013-02-15 07:35:00
12:55 AM,32.0,19.4,60,30.17,10.0,SSW,3.5,-,N/A,,Clear,200,2013-02-15 07:55:00
1:15 AM,35.6,21.2,56,30.18,10.0,West,3.5,-,N/A,,Clear,270,2013-02-15 08:15:00
1:35 AM,32.0,17.6,55,30.18,10.0,Calm,Calm,-,N/A,,Clear,0,2013-02-15 08:35:00
1:55 AM,32.0,17.6,55,30.19,10.0,Calm,Calm,-,N/A,,Clear,0,2013-02-15 08:55:00
2:15 AM,32.0,17.6,55,30.18,10.0,Calm,Calm,-,N/A,,Clear,0,2013-02-15 09:15:00
2:35 AM,32.0,19.4,60,30.18,10.0,South,3.5,-,N/A,,Clear,180,2013-02-15 09:35:00
2:55 AM,32.0,19.4,60,30.19,10.0,South,3.5,-,N/A,,Clear,170,2013-02-15 09:55:00
3:15 AM,33.8,19.4,56,30.19,10.0,WSW,4.6,-,N/A,,Clear,250,2013-02-15 10:15:00
3:35 AM,32.0,19.4,60,30.19,10.0,Calm,Calm,-,N/A,,Clear,0,2013-02-15 10:35:00
3:55 AM,32.0,17.6,55,30.19,10.0,North,4.6,-,N/A,,Clear,350,2013-02-15 10:55:00
4:15 AM,30.2,17.6,60,30.20,10.0,Calm,Calm,-,N/A,,Clear,0,2013-02-15 11:15:00
4:35 AM,32.0,19.4,60,30.20,10.0,Calm,Calm,-,N/A,,Clear,0,2013-02-15 11:35:00
4:55 AM,32.0,19.4,60,30.20,10.0,Calm,Calm,-,N/A,,Clear,0,2013-02-15 11:55:00
5:15 AM,32.0,19.4,60,30.21,10.0,SW,3.5,-,N/A,,Clear,220,2013-02-15 12:15:00
5:35 AM,30.2,19.4,64,30.23,10.0,Calm,Calm,-,N/A,,Clear,0,2013-02-15 12:35:00
5:55 AM,30.2,19.4,64,30.23,10.0,Calm,Calm,-,N/A,,Clear,0,2013-02-15 12:55:00
6:15 AM,28.4,17.6,64,30.24,10.0,Calm,Calm,-,N/A,,Clear,0,2013-02-15 13:15:00
6:35 AM,28.4,19.4,69,30.24,10.0,Calm,Calm,-,N/A,,Clear,0,2013-02-15 13:35:00
6:55 AM,28.4,19.4,69,30.24,10.0,SSE,3.5,-,N/A,,Clear,150,2013-02-15 13:55:00
7:15 AM,30.2,19.4,64,30.25,10.0,SSE,4.6,-,N/A,,Clear,160,2013-02-15 14:15:00
7:35 AM,32.0,19.4,60,30.27,10.0,South,4.6,-,N/A,,Clear,170,2013-02-15 14:35:00
7:55 AM,32.0,21.2,64,30.28,10.0,SSE,3.5,-,N/A,,Clear,150,2013-02-15 14:55:00
8:15 AM,33.8,21.2,60,30.30,10.0,SE,4.6,-,N/A,,Clear,130,2013-02-15 15:15:00
8:35 AM,35.6,21.2,56,30.31,10.0,SE,5.8,-,N/A,,Clear,140,2013-02-15 15:35:00
8:55 AM,39.2,21.2,49,30.32,10.0,SE,10.4,-,N/A,,Clear,130,2013-02-15 15:55:00
9:15 AM,42.8,23.0,46,30.31,10.0,SE,13.8,-,N/A,,Clear,140,2013-02-15 16:15:00
9:35 AM,44.6,21.2,39,30.32,10.0,SE,15.0,-,N/A,,Clear,140,2013-02-15 16:35:00
9:55 AM,44.6,21.2,39,30.32,10.0,SE,13.8,-,N/A,,Clear,130,2013-02-15 16:55:00
10:15 AM,48.2,23.0,37,30.32,10.0,SE,11.5,-,N/A,,Clear,140,2013-02-15 17:15:00
10:55 AM,51.8,23.0,33,30.32,10.0,SE,10.4,-,N/A,,Clear,140,2013-02-15 17:55:00
11:15 AM,51.8,21.2,30,30.31,10.0,SSE,9.2,-,N/A,,Clear,150,2013-02-15 18:15:00
11:35 AM,53.6,21.2,28,30.32,10.0,SE,10.4,-,N/A,,Clear,130,2013-02-15 18:35:00
11:55 AM,53.6,21.2,28,30.30,10.0,SSE,6.9,10.4,N/A,,Clear,160,2013-02-15 18:55:00
12:15 PM,53.6,19.4,26,30.29,10.0,North,-9999.0,-,N/A,,Clear,0,2013-02-15 19:15:00
12:35 PM,55.4,21.2,26,30.29,10.0,East,8.1,-,N/A,,Clear,100,2013-02-15 19:35:00
12:55 PM,55.4,21.2,26,30.28,10.0,Calm,Calm,-,N/A,,Clear,0,2013-02-15 19:55:00
1:15 PM,55.4,19.4,25,30.26,10.0,ESE,4.6,-,N/A,,Clear,120,2013-02-15 20:15:00
1:35 PM,57.2,19.4,23,30.24,10.0,Calm,Calm,-,N/A,,Clear,0,2013-02-15 20:35:00
1:55 PM,59.0,19.4,22,30.24,10.0,SSE,3.5,-,N/A,,Clear,160,2013-02-15 20:55:00
2:15 PM,59.0,19.4,22,30.23,10.0,ESE,5.8,-,N/A,,Clear,120,2013-02-15 21:15:00
2:35 PM,59.0,17.6,20,30.23,10.0,Calm,Calm,-,N/A,,Clear,0,2013-02-15 21:35:00
2:55 PM,60.8,17.6,19,30.23,10.0,WNW,5.8,-,N/A,,Clear,300,2013-02-15 21:55:00
3:15 PM,60.8,17.6,19,30.23,10.0,SE,4.6,-,N/A,,Clear,130,2013-02-15 22:15:00
3:35 PM,60.8,17.6,19,30.22,10.0,WNW,6.9,-,N/A,,Clear,290,2013-02-15 22:35:00
3:55 PM,60.8,17.6,19,30.22,10.0,WNW,4.6,-,N/A,,Clear,300,2013-02-15 22:55:00
4:15 PM,60.8,15.8,17,30.23,10.0,Calm,Calm,-,N/A,,Clear,0,2013-02-15 23:15:00
4:35 PM,60.8,15.8,17,30.23,10.0,Calm,Calm,-,N/A,,Clear,0,2013-02-15 23:35:00
4:55 PM,60.8,14.0,16,30.23,10.0,Calm,Calm,-,N/A,,Clear,0,2013-02-15 23:55:00
5:15 PM,59.0,14.0,17,30.23,10.0,North,3.5,-,N/A,,Clear,360,2013-02-16 00:15:00
5:35 PM,59.0,14.0,17,30.23,10.0,Calm,Calm,-,N/A,,Clear,0,2013-02-16 00:35:00
5:55 PM,57.2,14.0,18,30.23,10.0,Calm,Calm,-,N/A,,Clear,0,2013-02-16 00:55:00
6:15 PM,51.8,14.0,22,30.24,10.0,South,5.8,-,N/A,,Clear,170,2013-02-16 01:15:00
6:35 PM,48.2,15.8,27,30.25,10.0,SSW,4.6,-,N/A,,Clear,200,2013-02-16 01:35:00
6:55 PM,46.4,14.0,27,30.25,10.0,South,6.9,-,N/A,,Clear,190,2013-02-16 01:55:00
7:15 PM,46.4,15.8,29,30.26,10.0,SSW,6.9,-,N/A,,Clear,200,2013-02-16 02:15:00
7:35 PM,44.6,14.0,29,30.28,10.0,SE,3.5,-,N/A,,Clear,130,2013-02-16 02:35:00
7:55 PM,42.8,14.0,31,30.28,10.0,SSE,3.5,-,N/A,,Clear,150,2013-02-16 02:55:00
8:15 PM,41.0,14.0,33,30.29,10.0,SSE,8.1,-,N/A,,Clear,150,2013-02-16 03:15:00
8:35 PM,39.2,14.0,36,30.30,10.0,SSE,6.9,-,N/A,,Clear,160,2013-02-16 03:35:00
8:55 PM,41.0,15.8,36,30.31,10.0,SSE,5.8,-,N/A,,Clear,160,2013-02-16 03:55:00
9:15 PM,39.2,15.8,39,30.31,10.0,South,6.9,-,N/A,,Clear,170,2013-02-16 04:15:00
9:35 PM,39.2,15.8,39,30.31,10.0,SSE,6.9,-,N/A,,Clear,150,2013-02-16 04:35:00
9:55 PM,37.4,15.8,41,30.32,10.0,SSE,5.8,-,N/A,,Clear,150,2013-02-16 04:55:00
10:15 PM,37.4,17.6,45,30.32,10.0,South,4.6,-,N/A,,Clear,170,2013-02-16 05:15:00
10:35 PM,37.4,17.6,45,30.33,10.0,SSE,5.8,-,N/A,,Clear,160,2013-02-16 05:35:00
10:55 PM,37.4,17.6,45,30.33,10.0,South,6.9,-,N/A,,Clear,170,2013-02-16 05:55:00
11:15 PM,35.6,17.6,48,30.34,10.0,South,8.1,-,N/A,,Clear,170,2013-02-16 06:15:00
11:35 PM,35.6,17.6,48,30.35,10.0,South,9.2,-,N/A,,Clear,170,2013-02-16 06:35:00
11:55 PM,35.6,17.6,48,30.35,10.0,SSE,6.9,-,N/A,,Clear,160,2013-02-16 06:55:00